createdAt,value
2018-06-23T00:01:11.499Z,6.93
2018-06-23T00:03:40.394Z,5.83
2018-06-23T00:06:08.135Z,4.33
2018-06-23T00:08:37.045Z,3.50
2018-06-23T00:11:05.374Z,5.37
2018-06-23T00:13:33.688Z,3.53
2018-06-23T00:16:02.028Z,11.40
2018-06-23T00:18:29.773Z,4.07
2018-06-23T00:20:58.678Z,4.17
2018-06-23T00:23:26.999Z,5.13
2018-06-23T00:25:54.736Z,6.03
2018-06-23T00:28:23.053Z,3.30
2018-06-23T00:30:51.956Z,5.37
2018-06-23T00:33:20.277Z,5.17
2018-06-23T00:35:48.017Z,5.13
2018-06-23T00:38:16.970Z,9.37
2018-06-23T00:40:45.048Z,6.43
2018-06-23T00:43:13.034Z,9.40
2018-06-23T00:45:41.356Z,6.57
2018-06-23T00:48:10.264Z,8.10
2018-06-23T00:50:38.586Z,4.73
2018-06-23T00:53:06.913Z,4.83
2018-06-23T00:55:35.228Z,8.37
2018-06-23T00:58:02.965Z,5.83
2018-06-23T01:00:31.866Z,5.90
2018-06-23T01:03:00.194Z,4.00
2018-06-23T01:05:27.941Z,5.47
2018-06-23T01:07:56.852Z,5.43
2018-06-23T01:10:25.173Z,5.73
2018-06-23T01:12:53.502Z,5.43
2018-06-23T01:15:21.251Z,5.63
2018-06-23T01:17:49.568Z,6.33
2018-06-23T01:20:17.888Z,4.80
2018-06-23T01:22:46.207Z,4.47
2018-06-23T01:25:14.524Z,5.23
2018-06-23T01:27:43.427Z,4.83
2018-06-23T01:30:11.741Z,6.07
2018-06-23T01:32:39.489Z,7.53
2018-06-23T01:35:08.398Z,7.53
2018-06-23T01:37:36.714Z,4.97
2018-06-23T01:40:05.151Z,4.70
2018-06-23T01:42:33.687Z,7.97
2018-06-23T01:45:01.209Z,4.37
2018-06-23T01:47:30.114Z,6.23
2018-06-23T01:49:58.438Z,4.83
2018-06-23T01:52:26.762Z,7.00
2018-06-23T01:54:55.092Z,5.60
2018-06-23T01:57:22.825Z,7.60
2018-06-23T01:59:51.749Z,7.87
2018-06-23T02:02:20.067Z,8.13
2018-06-23T02:04:48.382Z,7.80
2018-06-23T02:07:16.699Z,6.13
2018-06-23T02:09:44.448Z,11.27
2018-06-23T02:12:13.350Z,7.03
2018-06-23T02:14:41.683Z,8.67
2018-06-23T02:17:11.223Z,11.63
2018-06-23T02:19:39.552Z,6.13
2018-06-23T02:22:08.454Z,8.70
2018-06-23T02:24:37.680Z,7.90
2018-06-23T02:27:11.619Z,7.03
2018-06-23T02:29:39.948Z,6.00
2018-06-23T02:32:09.127Z,11.57
2018-06-23T02:34:37.462Z,6.67
2018-06-23T02:37:05.790Z,12.37
2018-06-23T02:39:34.098Z,7.83
2018-06-23T02:42:02.471Z,5.37
2018-06-23T02:44:30.808Z,9.20
2018-06-23T02:46:59.116Z,5.67
2018-06-23T02:49:26.854Z,5.80
2018-06-23T02:51:55.752Z,11.20
2018-06-23T02:54:24.077Z,7.23
2018-06-23T02:56:52.396Z,10.73
2018-06-23T02:59:20.731Z,8.00
2018-06-23T03:01:49.044Z,6.73
2018-06-23T03:04:17.370Z,7.27
2018-06-23T03:06:45.696Z,8.50
2018-06-23T03:09:14.026Z,8.80
2018-06-23T03:11:41.777Z,6.77
2018-06-23T03:14:10.702Z,6.73
2018-06-23T03:16:39.015Z,5.87
2018-06-23T03:19:06.761Z,6.90
2018-06-23T03:21:35.660Z,9.20
2018-06-23T03:24:03.975Z,8.37
2018-06-23T03:26:32.290Z,5.20
2018-06-23T03:29:00.615Z,8.80
2018-06-23T03:31:28.946Z,8.93
2018-06-23T03:33:57.255Z,6.33
2018-06-23T03:36:25.559Z,9.50
2018-06-23T03:38:53.411Z,9.40
2018-06-23T03:41:21.686Z,6.43
2018-06-23T03:43:50.916Z,9.77
2018-06-23T03:46:18.958Z,5.50
2018-06-23T03:48:47.285Z,8.03
2018-06-23T03:51:15.025Z,7.37
2018-06-23T03:53:43.341Z,8.80
2018-06-23T03:56:12.254Z,7.63
2018-06-23T03:58:40.019Z,8.77
2018-06-23T04:01:08.340Z,7.00
2018-06-23T04:03:37.243Z,7.07
2018-06-23T04:06:05.561Z,7.67
2018-06-23T04:08:33.925Z,6.53
2018-06-23T04:11:02.246Z,7.63
2018-06-23T04:13:29.996Z,8.17
2018-06-23T04:15:58.882Z,7.33
2018-06-23T04:18:27.210Z,6.90
2018-06-23T04:20:55.540Z,9.57
2018-06-23T04:23:23.281Z,10.20
2018-06-23T04:25:52.090Z,7.90
2018-06-23T04:28:19.983Z,9.30
2018-06-23T04:30:48.897Z,8.00
2018-06-23T04:33:16.900Z,7.83
2018-06-23T04:35:45.538Z,9.83
2018-06-23T04:38:13.265Z,7.77
2018-06-23T04:40:42.174Z,7.57
2018-06-23T04:43:10.493Z,8.93
2018-06-23T04:45:38.875Z,7.40
2018-06-23T04:48:07.210Z,9.10
2018-06-23T04:50:35.527Z,6.10
2018-06-23T04:53:03.265Z,5.97
2018-06-23T04:55:32.166Z,6.33
2018-06-23T04:57:59.951Z,5.90
2018-06-23T05:00:28.863Z,7.33
2018-06-23T05:02:57.134Z,4.87
2018-06-23T05:05:25.461Z,6.57
2018-06-23T05:07:53.790Z,6.47
2018-06-23T05:10:22.113Z,11.27
2018-06-23T05:12:50.448Z,6.07
2018-06-23T05:15:18.774Z,6.20
2018-06-23T05:17:47.091Z,6.97
2018-06-23T05:20:14.891Z,8.47
2018-06-23T05:22:43.718Z,5.77
2018-06-23T05:25:12.047Z,4.50
2018-06-23T05:27:39.790Z,5.50
2018-06-23T05:30:08.682Z,4.57
2018-06-23T05:32:36.430Z,5.23
2018-06-23T05:35:04.757Z,6.13
2018-06-23T05:37:33.647Z,4.50
2018-06-23T05:40:01.966Z,5.23
2018-06-23T05:42:30.291Z,4.43
2018-06-23T05:44:58.614Z,5.70
2018-06-23T05:47:26.384Z,4.87
2018-06-23T05:49:55.277Z,5.93
2018-06-23T05:52:23.017Z,3.37
2018-06-23T05:54:51.341Z,7.13
2018-06-23T05:57:20.238Z,3.93
2018-06-23T05:59:48.565Z,7.33
2018-06-23T06:02:16.317Z,4.27
2018-06-23T06:04:45.220Z,4.43
2018-06-23T06:07:13.537Z,5.50
2018-06-23T06:09:41.868Z,3.70
2018-06-23T06:12:10.202Z,3.53
2018-06-23T06:14:38.519Z,4.50
2018-06-23T06:17:06.277Z,4.40
2018-06-23T06:19:35.179Z,3.40
2018-06-23T06:22:02.917Z,3.73
2018-06-23T06:24:31.817Z,6.30
2018-06-23T06:27:00.155Z,3.90
2018-06-23T06:29:28.519Z,3.30
2018-06-23T06:31:56.244Z,41.13
2018-06-23T06:34:25.149Z,3.50
2018-06-23T06:36:53.467Z,3.70
2018-06-23T06:39:21.220Z,3.43
2018-06-23T06:41:50.125Z,3.60
2018-06-23T06:44:18.441Z,3.77
2018-06-23T06:46:46.301Z,5.87
2018-06-23T06:49:15.118Z,1.63
2018-06-23T06:51:43.438Z,1.70
2018-06-23T06:54:11.757Z,2.50
2018-06-23T06:56:40.077Z,1.67
2018-06-23T06:59:08.407Z,2.23
2018-06-23T07:01:36.734Z,2.20
2018-06-23T07:04:05.055Z,2.37
2018-06-23T07:06:32.930Z,2.00
2018-06-23T07:09:01.699Z,2.17
2018-06-23T07:11:30.023Z,1.57
2018-06-23T07:13:57.873Z,2.43
2018-06-23T07:16:26.202Z,1.30
2018-06-23T07:18:54.528Z,2.57
2018-06-23T07:21:23.445Z,3.27
2018-06-23T07:23:51.864Z,2.73
2018-06-23T07:26:20.081Z,2.73
2018-06-23T07:28:48.398Z,3.30
2018-06-23T07:31:16.722Z,1.87
2018-06-23T07:33:45.048Z,3.53
2018-06-23T07:36:13.376Z,27.60
2018-06-23T07:38:41.158Z,1.17
2018-06-23T07:41:09.480Z,2.07
2018-06-23T07:43:38.393Z,1.90
2018-06-23T07:46:06.248Z,4.53
2018-06-23T07:48:35.048Z,2.87
2018-06-23T07:51:03.431Z,1.07
2018-06-23T07:53:31.760Z,2.40
2018-06-23T07:55:59.514Z,2.57
2018-06-23T07:58:28.425Z,1.80
2018-06-23T08:00:56.748Z,2.27
2018-06-23T08:03:25.070Z,6.13
2018-06-23T08:05:52.827Z,2.37
2018-06-23T08:08:21.729Z,1.93
2018-06-23T08:10:50.173Z,2.30
2018-06-23T08:13:18.497Z,3.53
2018-06-23T08:15:46.836Z,1.20
2018-06-23T08:18:14.581Z,2.07
2018-06-23T08:20:43.488Z,2.87
2018-06-23T08:25:40.138Z,1.17
2018-06-23T08:28:07.881Z,6.97
2018-06-23T08:30:36.782Z,1.70
2018-06-23T08:33:04.534Z,1.83
2018-06-23T08:35:33.430Z,2.20
2018-06-23T08:38:01.759Z,2.30
2018-06-23T08:40:30.094Z,0.93
2018-06-23T08:42:58.417Z,2.20
2018-06-23T08:45:26.153Z,2.10
2018-06-23T08:47:55.061Z,1.43
2018-06-23T08:50:22.804Z,0.93
2018-06-23T08:52:51.773Z,3.07
2018-06-23T08:55:20.074Z,2.40
2018-06-23T08:57:47.808Z,2.37
2018-06-23T09:00:16.129Z,15.93
2018-06-23T09:02:44.486Z,10.00
2018-06-23T09:05:13.386Z,2.17
2018-06-23T09:07:41.755Z,2.60
2018-06-23T09:10:10.087Z,1.57
2018-06-23T09:12:38.411Z,3.50
2018-06-23T09:15:06.768Z,1.57
2018-06-23T09:17:35.112Z,5.90
2018-06-23T09:20:03.444Z,3.50
2018-06-23T09:22:32.016Z,5.43
2018-06-23T09:25:00.122Z,1.93
2018-06-23T09:27:33.368Z,1.37
2018-06-23T09:30:01.703Z,1.50
2018-06-23T09:32:29.476Z,1.90
2018-06-23T09:34:57.810Z,1.07
2018-06-23T09:37:26.723Z,1.33
2018-06-23T09:39:55.042Z,15.43
2018-06-23T09:42:23.376Z,4.97
2018-06-23T09:44:51.796Z,2.83
2018-06-23T09:47:19.791Z,2.00
2018-06-23T09:49:48.672Z,9.57
2018-06-23T09:52:17.003Z,7.23
2018-06-23T09:54:45.338Z,3.37
2018-06-23T09:57:13.659Z,4.17
2018-06-23T09:59:41.984Z,3.40
2018-06-23T10:02:10.307Z,5.53
2018-06-23T10:04:38.646Z,4.70
2018-06-23T10:07:07.008Z,6.90
2018-06-23T10:09:35.301Z,5.00
2018-06-23T10:12:03.625Z,4.80
2018-06-23T10:14:31.955Z,2.67
2018-06-23T10:16:59.720Z,1.90
2018-06-23T10:19:28.050Z,3.50
2018-06-23T10:21:56.967Z,3.77
2018-06-23T10:24:25.328Z,6.50
2018-06-23T10:26:53.034Z,9.10
2018-06-23T10:29:21.371Z,5.90
2018-06-23T10:31:50.284Z,3.80
2018-06-23T10:34:18.027Z,5.47
2018-06-23T10:36:46.925Z,4.43
2018-06-23T10:39:15.286Z,1.83
2018-06-23T10:41:43.618Z,8.40
2018-06-23T10:44:11.400Z,4.50
2018-06-23T10:46:40.333Z,4.47
2018-06-23T10:49:08.816Z,3.63
2018-06-23T10:51:37.344Z,2.67
2018-06-23T10:54:05.446Z,4.13
2018-06-23T10:56:39.087Z,6.17
2018-06-23T10:59:03.701Z,6.70
2018-06-23T11:04:27.500Z,4.40
2018-06-23T11:06:55.814Z,3.30
2018-06-23T11:09:24.152Z,12.17
2018-06-23T11:11:52.469Z,5.87
2018-06-23T11:14:20.816Z,4.27
2018-06-23T11:16:49.145Z,2.30
2018-06-23T11:19:17.460Z,4.47
2018-06-23T11:21:46.034Z,5.63
2018-06-23T11:24:14.175Z,5.37
2018-06-23T11:26:42.487Z,4.03
2018-06-23T11:29:11.047Z,2.50
2018-06-23T11:31:41.128Z,4.03
2018-06-23T11:34:08.878Z,4.70
2018-06-23T11:36:38.032Z,5.47
2018-06-23T11:39:06.162Z,5.23
2018-06-23T11:41:34.528Z,6.97
2018-06-23T11:44:03.028Z,3.60
2018-06-23T11:46:31.495Z,4.03
2018-06-23T11:48:59.905Z,3.97
2018-06-23T11:51:29.453Z,6.40
2018-06-23T11:53:57.188Z,3.90
2018-06-23T11:56:25.298Z,4.10
2018-06-23T11:58:53.638Z,6.23
2018-06-23T12:01:22.506Z,3.57
2018-06-23T12:03:50.623Z,4.17
2018-06-23T12:06:20.873Z,4.67
2018-06-23T12:08:49.235Z,2.93
2018-06-23T12:11:17.541Z,4.30
2018-06-23T12:13:45.874Z,2.77
2018-06-23T12:16:14.246Z,2.00
2018-06-23T12:18:42.662Z,4.40
2018-06-23T12:21:10.980Z,5.43
2018-06-23T12:23:38.737Z,3.23
2018-06-23T12:26:07.660Z,5.83
2018-06-23T12:28:35.980Z,5.30
2018-06-23T12:31:03.830Z,5.33
2018-06-23T12:33:32.830Z,3.90
2018-06-23T12:36:01.381Z,5.83
2018-06-23T12:38:30.151Z,26.10
2018-06-23T12:40:58.428Z,3.13
2018-06-23T12:43:29.027Z,3.43
2018-06-23T12:45:57.510Z,4.37
2018-06-23T12:48:25.926Z,5.80
2018-06-23T12:50:54.199Z,3.60
2018-06-23T12:53:23.271Z,5.00
2018-06-23T12:55:51.043Z,5.50
2018-06-23T12:58:19.394Z,4.83
2018-06-23T13:00:47.127Z,3.00
2018-06-23T13:03:16.071Z,4.97
2018-06-23T13:05:44.390Z,6.03
2018-06-23T13:08:12.724Z,7.63
2018-06-23T13:10:41.137Z,4.00
2018-06-23T13:13:09.467Z,4.67
2018-06-23T13:15:37.795Z,5.53
2018-06-23T13:18:06.116Z,5.17
2018-06-23T13:20:34.439Z,6.30
2018-06-23T13:23:02.869Z,5.70
2018-06-23T13:25:31.311Z,4.97
2018-06-23T13:27:59.995Z,5.53
2018-06-23T13:30:28.276Z,6.80
2018-06-23T13:32:59.515Z,6.23
2018-06-23T13:35:28.925Z,7.87
2018-06-23T13:37:57.028Z,5.93
2018-06-23T13:40:25.366Z,7.53
2018-06-23T13:42:53.712Z,9.50
2018-06-23T13:45:22.168Z,6.70
2018-06-23T13:47:50.532Z,7.10
2018-06-23T13:50:18.870Z,9.47
2018-06-23T13:52:47.177Z,6.47
2018-06-23T13:55:15.643Z,7.13
2018-06-23T14:00:12.613Z,7.00
2018-06-23T14:02:40.969Z,14.33
2018-06-23T14:05:09.462Z,20.40
2018-06-23T14:07:37.798Z,6.70
2018-06-23T14:10:06.124Z,6.17
2018-06-23T14:12:34.530Z,7.07
2018-06-23T14:15:02.846Z,7.00
2018-06-23T14:17:31.735Z,10.20
2018-06-23T14:20:00.216Z,7.77
2018-06-23T14:22:28.548Z,6.60
2018-06-23T14:24:57.761Z,12.20
2018-06-23T14:27:26.419Z,8.67
2018-06-23T14:29:54.738Z,9.10
2018-06-23T14:32:23.368Z,5.33
2018-06-23T14:34:51.663Z,7.47
2018-06-23T14:37:20.210Z,5.17
2018-06-23T14:39:48.352Z,6.50
2018-06-23T14:42:16.718Z,9.20
2018-06-23T14:44:45.049Z,9.07
2018-06-23T14:47:13.491Z,5.33
2018-06-23T14:49:41.832Z,7.13
2018-06-23T14:52:10.197Z,7.50
2018-06-23T14:54:38.580Z,6.13
2018-06-23T14:57:06.901Z,6.43
2018-06-23T14:59:35.272Z,8.63
2018-06-23T15:02:03.609Z,8.40
2018-06-23T15:04:31.955Z,6.83
2018-06-23T15:07:00.331Z,6.47
2018-06-23T15:09:35.997Z,7.40
2018-06-23T15:12:16.121Z,8.90
2018-06-23T15:14:44.584Z,8.47
2018-06-23T15:17:13.082Z,8.83
2018-06-23T15:19:41.351Z,12.17
2018-06-23T15:22:09.111Z,6.13
2018-06-23T15:24:38.037Z,8.43
2018-06-23T15:27:06.367Z,5.73
2018-06-23T15:29:34.130Z,6.37
2018-06-23T15:32:16.001Z,10.30
2018-06-23T15:37:43.876Z,8.00
2018-06-23T15:40:12.218Z,11.63
2018-06-23T15:42:43.985Z,9.40
2018-06-23T15:47:56.852Z,18.17
2018-06-23T15:50:24.596Z,9.43
2018-06-23T15:53:00.474Z,14.13
2018-06-23T15:58:11.197Z,17.17
2018-06-23T16:00:39.527Z,26.00
2018-06-23T16:03:07.921Z,16.40
2018-06-23T16:05:36.306Z,32.10
2018-06-23T16:08:04.657Z,19.57
2018-06-23T16:10:32.410Z,11.53
2018-06-23T16:13:02.783Z,10.83
2018-06-23T16:15:31.161Z,14.20
2018-06-23T16:17:59.569Z,12.00
2018-06-23T16:20:27.315Z,15.37
2018-06-23T16:22:56.237Z,16.63
2018-06-23T16:25:24.603Z,11.00
2018-06-23T16:27:53.007Z,15.90
2018-06-23T16:30:21.386Z,10.47
2018-06-23T16:32:49.777Z,42.97
2018-06-23T16:35:18.261Z,12.47
2018-06-23T16:37:46.478Z,13.63
2018-06-23T16:40:15.049Z,17.70
2018-06-23T16:42:43.189Z,11.83
2018-06-23T16:45:11.575Z,22.50
2018-06-23T16:47:39.918Z,13.33
2018-06-23T16:50:08.293Z,14.33
2018-06-23T16:52:36.043Z,16.47
2018-06-23T16:55:04.950Z,14.87
2018-06-23T16:57:33.288Z,10.63
2018-06-23T17:00:01.066Z,13.07
2018-06-23T17:02:29.982Z,14.00
2018-06-23T17:04:58.365Z,8.47
2018-06-23T17:07:26.699Z,10.70
2018-06-23T17:09:55.030Z,12.07
2018-06-23T17:12:23.378Z,9.47
2018-06-23T17:14:51.701Z,9.70
2018-06-23T17:17:20.135Z,10.10
2018-06-23T17:19:47.889Z,10.70
2018-06-23T17:22:17.038Z,12.33
2018-06-23T17:24:45.149Z,11.17
2018-06-23T17:27:13.508Z,40.13
2018-06-23T17:29:41.829Z,12.50
2018-06-23T17:32:09.579Z,13.33
2018-06-23T17:34:37.902Z,18.23
2018-06-23T17:37:06.819Z,16.57
2018-06-23T17:39:35.145Z,19.50
2018-06-23T17:42:03.478Z,18.60
2018-06-23T17:44:31.229Z,8.80
2018-06-23T17:46:59.555Z,8.60
2018-06-23T17:49:28.469Z,10.20
2018-06-23T17:51:56.794Z,9.03
2018-06-23T17:54:25.134Z,13.43
2018-06-23T17:56:53.517Z,12.23
2018-06-23T17:59:21.860Z,15.13
2018-06-23T18:01:50.210Z,13.20
2018-06-23T18:04:18.535Z,14.00
2018-06-23T18:06:46.959Z,15.40
2018-06-23T18:09:15.263Z,17.30
2018-06-23T18:11:43.017Z,14.20
2018-06-23T18:14:11.940Z,12.87
2018-06-23T18:16:40.874Z,14.67
2018-06-23T18:19:08.605Z,16.00
2018-06-23T18:21:36.364Z,12.90
2018-06-23T18:24:04.698Z,15.03
2018-06-23T18:26:33.606Z,10.43
2018-06-23T18:29:01.965Z,8.67
2018-06-23T18:31:30.350Z,15.43
2018-06-23T18:33:58.672Z,47.07
2018-06-23T18:36:27.020Z,34.13
2018-06-23T18:38:55.349Z,12.90
2018-06-23T18:41:23.708Z,18.83
2018-06-23T18:43:52.045Z,11.90
2018-06-23T18:46:20.370Z,13.33
2018-06-23T18:48:48.715Z,19.40
2018-06-23T18:51:17.055Z,18.03
2018-06-23T18:53:45.384Z,19.77
2018-06-23T18:56:13.151Z,21.27
2018-06-23T18:58:42.080Z,22.90
2018-06-23T19:01:10.421Z,20.73
2018-06-23T19:03:38.776Z,19.37
2018-06-23T19:06:07.102Z,19.20
2018-06-23T19:08:35.600Z,17.30
2018-06-23T19:11:03.932Z,14.07
2018-06-23T19:13:32.270Z,17.87
2018-06-23T19:16:00.610Z,17.37
2018-06-23T19:18:28.967Z,17.00
2018-06-23T19:20:57.354Z,16.13
2018-06-23T19:23:25.685Z,16.40
2018-06-23T19:25:54.054Z,15.67
2018-06-23T19:28:22.647Z,20.17
2018-06-23T19:30:50.170Z,26.20
2018-06-23T19:33:19.150Z,20.70
2018-06-23T19:35:47.561Z,16.10
2018-06-23T19:38:15.904Z,18.93
2018-06-23T19:40:44.309Z,22.57
2018-06-23T19:43:12.649Z,23.33
2018-06-23T19:45:41.115Z,21.40
2018-06-23T19:48:10.023Z,24.47
2018-06-23T19:50:38.349Z,27.27
2018-06-23T19:53:06.754Z,21.03
2018-06-23T19:55:35.265Z,22.97
2018-06-23T19:58:03.743Z,23.60
2018-06-23T20:00:32.214Z,23.03
2018-06-23T20:03:00.662Z,22.90
2018-06-23T20:05:28.996Z,26.63
2018-06-23T20:07:57.437Z,20.73
2018-06-23T20:10:25.850Z,18.97
2018-06-23T20:12:54.193Z,20.07
2018-06-23T20:15:21.946Z,25.10
2018-06-23T20:17:50.860Z,33.67
2018-06-23T20:20:19.201Z,43.00
2018-06-23T20:22:47.537Z,39.40
2018-06-23T20:25:15.940Z,37.83
2018-06-23T20:27:44.277Z,33.60
2018-06-23T20:30:12.670Z,29.93
2018-06-23T20:32:41.100Z,36.23
2018-06-23T20:35:09.480Z,27.67
2018-06-23T20:37:37.235Z,29.00
2018-06-23T20:40:06.156Z,30.30
2018-06-23T20:42:34.494Z,29.60
2018-06-23T20:45:02.829Z,28.23
2018-06-23T20:47:30.643Z,24.93
2018-06-23T20:49:58.921Z,29.70
2018-06-23T20:52:27.896Z,32.83
2018-06-23T20:54:56.227Z,85.47
2018-06-23T20:57:24.566Z,68.43
2018-06-23T20:59:52.322Z,69.50
2018-06-23T21:02:21.261Z,48.97
2018-06-23T21:04:49.819Z,33.83
2018-06-23T21:07:17.947Z,32.30
2018-06-23T21:09:46.298Z,29.53
2018-06-23T21:12:14.676Z,30.47
2018-06-23T21:14:42.428Z,23.37
2018-06-23T21:17:10.806Z,29.13
2018-06-23T21:19:39.703Z,26.83
2018-06-23T21:22:07.460Z,32.17
2018-06-23T21:24:36.385Z,29.93
2018-06-23T21:27:04.141Z,29.90
2018-06-23T21:29:33.136Z,31.27
2018-06-23T21:32:01.548Z,32.13
2018-06-23T21:34:29.942Z,36.17
2018-06-23T21:36:58.319Z,32.80
2018-06-23T21:39:26.785Z,37.00
2018-06-23T21:41:55.118Z,39.33
2018-06-23T21:44:23.456Z,34.60
2018-06-23T21:46:51.281Z,38.03
2018-06-23T21:49:20.197Z,40.00
2018-06-23T21:51:48.529Z,37.23
2018-06-23T21:54:16.884Z,40.20
2018-06-23T21:56:45.208Z,36.43
2018-06-23T21:59:12.961Z,34.47
2018-06-23T22:01:41.884Z,33.67
2018-06-23T22:04:21.207Z,34.90
2018-06-23T22:06:50.587Z,35.37
2018-06-23T22:09:25.692Z,36.97
2018-06-23T22:11:54.185Z,35.40
2018-06-23T22:14:22.593Z,33.50
2018-06-23T22:16:50.347Z,33.80
2018-06-23T22:19:19.263Z,33.07
2018-06-23T22:21:47.025Z,35.57
2018-06-23T22:24:16.001Z,38.63
2018-06-23T22:26:44.391Z,45.13
2018-06-23T22:29:12.824Z,50.30
2018-06-23T22:31:41.210Z,56.27
2018-06-23T22:34:09.600Z,58.43
2018-06-23T22:36:37.960Z,58.53
2018-06-23T22:39:06.297Z,57.13
2018-06-23T22:41:34.624Z,61.00
2018-06-23T22:44:02.378Z,48.93
2018-06-23T22:46:31.303Z,53.40
2018-06-23T22:48:59.902Z,51.63
2018-06-23T22:51:28.289Z,42.87
2018-06-23T22:53:56.639Z,43.33
2018-06-23T22:56:24.991Z,43.53
2018-06-23T22:58:53.437Z,53.10
2018-06-23T23:01:21.808Z,54.40
2018-06-23T23:03:50.188Z,55.20
2018-06-23T23:06:18.671Z,56.23
2018-06-23T23:08:47.014Z,55.00
2018-06-23T23:11:15.361Z,55.30
2018-06-23T23:13:43.856Z,50.07
2018-06-23T23:16:12.239Z,52.80
2018-06-23T23:18:40.001Z,49.10
2018-06-23T23:21:09.225Z,56.17
2018-06-23T23:23:37.567Z,55.37
2018-06-23T23:26:05.911Z,46.17
2018-06-23T23:28:34.258Z,41.53
2018-06-23T23:31:02.595Z,36.00
2018-06-23T23:33:30.947Z,20.23
2018-06-23T23:35:59.321Z,36.73
2018-06-23T23:38:27.688Z,40.97
2018-06-23T23:40:56.023Z,36.23
2018-06-23T23:43:24.372Z,42.53
2018-06-23T23:45:52.715Z,44.50
2018-06-23T23:48:21.055Z,46.73
2018-06-23T23:50:49.404Z,42.43
2018-06-23T23:53:17.150Z,51.57
2018-06-23T23:55:45.492Z,47.47
2018-06-23T23:58:13.834Z,38.70
